Página principal
METAR-TAF:

METAR-TAF

Aeroportos :

Armilla

Granada, Espanha

latitude: 37-08N, longitude: 003-38-08W, altura: 700 m

METAR: em falta

Hora: 13:49 (11:49 UTC)

Previsão

O boletim foi feito há 49 minutos, às 11:00 UTC
Previsão válida de 12 às 12 UTC a 13 às 12 UTC
Vento 2 kt com direcção variável
Visibilidade 10 km ou mais
sem nuvens abaixo de 1500 metros e sem cumulonimbus
Tornando-se
de 12 às 12 UTC a 12 às 13 UTC
Vento 10 kt de oeste
Tornando-se
de 12 às 20 UTC a 12 às 22 UTC
Vento 2 kt com direcção variável
Tornando-se
de 13 às 10 UTC a 13 às 12 UTC
Vento 10 kt de sul

TAF: LEGA 121100Z 1212/1312 VRB02KT CAVOK TX37/1215Z TN20/1305Z BECMG 1212/1213 28010KT BECMG 1220/1222 VRB02KT BECMG 1310/1312 18010KT

Observações e previsões do tempo de mais de 4000 aeroportos (mensagens METAR e TAF).

As estações disponíveis são os pontos amarelos e vermelhos sobre o mapa.

Mova o rato sobre o mapa para ver o nome da estação.

Depois clique no ponto para visualizar as observações e previsões meteorológicas.

Para alterar o mapa : clique nos botões verdes com uma cruz preta para aumentar o zoom; no botão verde com uma pitada de zoom; ou nas setas verdes para mapas adjacentes.


METAR-TAF: